createdAt,value
2022-10-23T00:01:15.453Z,96.42
2022-10-23T00:03:41.936Z,97.28
2022-10-23T00:06:08.827Z,96.96
2022-10-23T00:08:35.436Z,96.04
2022-10-23T00:11:06.701Z,98.69
2022-10-23T00:13:33.099Z,98.87
2022-10-23T00:15:59.493Z,99.66
2022-10-23T00:18:25.974Z,99.37
2022-10-23T00:20:52.477Z,98.85
2022-10-23T00:23:18.857Z,100.00
2022-10-23T00:25:45.189Z,100.00
2022-10-23T00:28:11.600Z,100.00
2022-10-23T00:30:37.993Z,99.41
2022-10-23T00:33:04.485Z,98.33
2022-10-23T00:35:31.023Z,97.32
2022-10-23T00:37:57.456Z,96.95
2022-10-23T00:40:23.924Z,96.76
2022-10-23T00:42:50.344Z,97.05
2022-10-23T00:45:23.576Z,96.99
2022-10-23T00:47:50.225Z,96.07
2022-10-23T00:50:22.836Z,95.50
2022-10-23T00:52:52.938Z,96.11
2022-10-23T00:55:21.734Z,96.60
2022-10-23T00:57:50.026Z,96.52
2022-10-23T01:00:26.402Z,96.96
2022-10-23T01:02:54.589Z,96.90
2022-10-23T01:05:30.323Z,96.32
2022-10-23T01:08:02.889Z,96.42
2022-10-23T01:10:40.041Z,96.29
2022-10-23T01:13:22.813Z,95.65
2022-10-23T01:16:07.318Z,95.58
2022-10-23T01:18:51.053Z,95.99
2022-10-23T01:21:28.684Z,95.78
2022-10-23T01:24:19.519Z,96.02
2022-10-23T01:27:13.374Z,97.18
2022-10-23T01:29:45.931Z,97.75
2022-10-23T01:32:25.105Z,97.36
2022-10-23T01:35:08.842Z,96.71
2022-10-23T01:37:43.985Z,97.26
2022-10-23T01:40:19.911Z,96.89
2022-10-23T01:42:53.090Z,97.36
2022-10-23T01:45:28.455Z,97.04
2022-10-23T01:47:56.526Z,96.94
2022-10-23T01:50:25.469Z,97.11
2022-10-23T01:52:52.031Z,96.52
2022-10-23T01:55:18.753Z,97.35
2022-10-23T01:57:47.394Z,96.90
2022-10-23T02:00:19.679Z,96.59
2022-10-23T02:02:49.762Z,97.48
2022-10-23T02:05:21.128Z,97.28
2022-10-23T02:07:48.134Z,97.54
2022-10-23T02:10:15.765Z,98.00
2022-10-23T02:12:57.388Z,97.91
2022-10-23T02:15:33.602Z,97.95
2022-10-23T02:18:18.148Z,97.98
2022-10-23T02:20:53.422Z,97.99
2022-10-23T02:23:29.020Z,97.67
2022-10-23T02:26:18.531Z,98.13
2022-10-23T02:28:51.892Z,97.92
2022-10-23T02:31:21.626Z,97.71
2022-10-23T02:33:48.095Z,97.45
2022-10-23T02:36:16.255Z,98.84
2022-10-23T02:38:44.246Z,98.97
2022-10-23T02:41:38.958Z,99.42
2022-10-23T02:44:29.731Z,98.78
2022-10-23T02:47:02.201Z,98.50
2022-10-23T02:49:49.002Z,99.03
2022-10-23T02:52:28.693Z,98.47
2022-10-23T02:54:57.810Z,98.17
2022-10-23T02:57:35.407Z,98.01
2022-10-23T03:00:16.773Z,97.70
2022-10-23T03:03:24.808Z,97.48
2022-10-23T03:05:51.308Z,97.54
2022-10-23T03:08:17.815Z,97.17
2022-10-23T03:10:44.653Z,96.98
2022-10-23T03:13:11.765Z,97.24
2022-10-23T03:15:38.235Z,97.64
2022-10-23T03:18:04.965Z,96.98
2022-10-23T03:20:31.402Z,97.20
2022-10-23T03:22:57.804Z,97.19
2022-10-23T03:25:24.168Z,96.75
2022-10-23T03:27:50.553Z,96.65
2022-10-23T03:30:17.732Z,96.61
2022-10-23T03:32:44.550Z,96.83
2022-10-23T03:35:11.106Z,96.82
2022-10-23T03:37:37.471Z,96.83
2022-10-23T03:40:04.601Z,98.19
2022-10-23T03:42:31.031Z,100.00
2022-10-23T03:44:57.403Z,99.57
2022-10-23T03:47:23.904Z,99.02
2022-10-23T03:49:50.292Z,98.38
2022-10-23T03:52:16.749Z,97.37
2022-10-23T03:54:43.222Z,97.19
2022-10-23T03:57:09.612Z,95.93
2022-10-23T03:59:36.013Z,95.57
2022-10-23T04:02:02.536Z,95.29
2022-10-23T04:04:29.021Z,94.95
2022-10-23T04:06:55.388Z,96.04
2022-10-23T04:09:21.773Z,96.46
2022-10-23T04:11:48.256Z,97.25
2022-10-23T04:14:14.812Z,97.60
2022-10-23T04:16:41.419Z,97.83
2022-10-23T04:19:07.811Z,97.80
2022-10-23T04:21:34.194Z,97.84
2022-10-23T04:24:00.781Z,98.42
2022-10-23T04:26:27.168Z,98.22
2022-10-23T04:28:53.605Z,97.85
2022-10-23T04:31:20.254Z,97.83
2022-10-23T04:33:46.782Z,99.25
2022-10-23T04:36:13.185Z,100.00
2022-10-23T04:38:39.543Z,100.00
2022-10-23T04:41:06.471Z,100.00
2022-10-23T04:43:32.917Z,100.00
2022-10-23T04:45:59.422Z,99.92
2022-10-23T04:48:28.417Z,99.07
2022-10-23T04:50:57.941Z,98.05
2022-10-23T04:53:25.327Z,97.67
2022-10-23T04:55:53.677Z,97.52
2022-10-23T04:58:20.410Z,98.87
2022-10-23T05:00:47.775Z,98.80
2022-10-23T05:03:15.167Z,98.32
2022-10-23T05:05:42.370Z,97.90
2022-10-23T05:08:09.124Z,97.29
2022-10-23T05:10:35.634Z,97.34
2022-10-23T05:13:03.254Z,96.83
2022-10-23T05:15:29.768Z,96.69
2022-10-23T05:18:01.415Z,96.09
2022-10-23T05:20:32.891Z,96.55
2022-10-23T05:23:00.852Z,96.87
2022-10-23T05:25:28.813Z,97.38
2022-10-23T05:27:55.153Z,97.37
2022-10-23T05:30:21.660Z,98.33
2022-10-23T05:32:48.346Z,97.74
2022-10-23T05:35:19.348Z,97.62
2022-10-23T05:37:47.944Z,97.65
2022-10-23T05:40:14.467Z,98.24
2022-10-23T05:42:41.767Z,98.20
2022-10-23T05:45:08.944Z,99.03
2022-10-23T05:47:35.467Z,98.50
2022-10-23T05:50:02.099Z,98.31
2022-10-23T05:52:28.486Z,98.60
2022-10-23T05:54:54.860Z,98.01
2022-10-23T05:57:21.263Z,97.54
2022-10-23T05:59:47.641Z,96.97
2022-10-23T06:02:14.037Z,97.39
2022-10-23T06:04:40.421Z,96.77
2022-10-23T06:07:06.777Z,96.34
2022-10-23T06:09:33.120Z,95.74
2022-10-23T06:12:01.596Z,96.45
2022-10-23T06:14:28.099Z,95.78
2022-10-23T06:16:54.558Z,97.18
2022-10-23T06:19:20.933Z,97.43
2022-10-23T06:21:47.390Z,97.40
2022-10-23T06:24:13.758Z,97.57
2022-10-23T06:26:40.129Z,97.60
2022-10-23T06:29:06.699Z,97.13
2022-10-23T06:31:33.106Z,97.46
2022-10-23T06:34:00.186Z,97.13
2022-10-23T06:36:27.244Z,97.47
2022-10-23T06:38:53.749Z,96.96
2022-10-23T06:41:21.968Z,96.11
2022-10-23T06:43:49.977Z,95.34
2022-10-23T06:46:17.706Z,95.16
2022-10-23T06:48:44.925Z,95.62
2022-10-23T06:51:17.268Z,94.47
2022-10-23T06:53:45.005Z,92.81
2022-10-23T06:56:11.747Z,92.27
2022-10-23T06:58:39.732Z,92.45
2022-10-23T07:01:08.891Z,89.88
2022-10-23T07:03:35.884Z,86.98
2022-10-23T07:06:04.434Z,84.23
2022-10-23T07:08:31.229Z,82.07
2022-10-23T07:10:58.070Z,80.56
2022-10-23T07:13:24.947Z,80.71
2022-10-23T07:15:51.679Z,77.85
2022-10-23T07:18:19.400Z,77.76
2022-10-23T07:20:49.279Z,76.97
2022-10-23T07:23:16.282Z,76.93
2022-10-23T07:25:42.760Z,74.05
2022-10-23T07:28:09.173Z,72.87
2022-10-23T07:30:35.560Z,70.81
2022-10-23T07:33:01.998Z,69.56
2022-10-23T07:35:28.423Z,70.42
2022-10-23T07:37:54.780Z,70.47
2022-10-23T07:40:21.764Z,69.94
2022-10-23T07:42:48.123Z,69.89
2022-10-23T07:45:14.547Z,69.23
2022-10-23T07:47:44.232Z,69.38
2022-10-23T07:50:10.989Z,67.02
2022-10-23T07:52:37.360Z,68.01
2022-10-23T07:55:04.055Z,69.00
2022-10-23T07:57:30.507Z,67.41
2022-10-23T07:59:56.946Z,66.17
2022-10-23T08:02:23.379Z,65.80
2022-10-23T08:04:50.318Z,66.04
2022-10-23T08:07:16.987Z,67.21
2022-10-23T08:09:43.415Z,66.13
2022-10-23T08:12:10.167Z,66.31
2022-10-23T08:14:36.525Z,64.48
2022-10-23T08:17:04.741Z,65.04
2022-10-23T08:19:31.243Z,64.34
2022-10-23T08:21:57.631Z,62.72
2022-10-23T08:24:24.017Z,61.63
2022-10-23T08:26:50.577Z,63.06
2022-10-23T08:29:17.378Z,63.74
2022-10-23T08:31:44.014Z,63.98
2022-10-23T08:34:10.478Z,62.29
2022-10-23T08:36:39.083Z,61.67
2022-10-23T08:39:06.342Z,62.10
2022-10-23T08:41:36.274Z,61.38
2022-10-23T08:44:25.906Z,65.49
2022-10-23T08:46:59.227Z,65.07
2022-10-23T08:49:42.644Z,63.47
2022-10-23T08:52:24.274Z,63.22
2022-10-23T08:54:53.648Z,60.82
2022-10-23T08:57:23.508Z,62.44
2022-10-23T08:59:58.986Z,61.14
2022-10-23T09:02:46.455Z,61.10
2022-10-23T09:05:17.793Z,59.53
2022-10-23T09:08:06.036Z,59.09
2022-10-23T09:10:56.515Z,59.28
2022-10-23T09:13:50.672Z,64.04
2022-10-23T09:16:23.010Z,67.54
2022-10-23T09:18:50.114Z,69.25
2022-10-23T09:21:17.191Z,68.91
2022-10-23T09:23:43.700Z,67.78
2022-10-23T09:26:16.453Z,67.22
2022-10-23T09:29:19.081Z,67.73
2022-10-23T09:31:50.568Z,68.78
2022-10-23T09:34:20.916Z,69.42
2022-10-23T09:37:03.713Z,69.26
2022-10-23T09:39:35.140Z,68.99
2022-10-23T09:42:13.895Z,68.79
2022-10-23T09:44:49.569Z,69.32
2022-10-23T09:47:20.666Z,67.83
2022-10-23T09:49:50.357Z,69.87
2022-10-23T09:52:17.634Z,71.53
2022-10-23T09:54:51.471Z,72.70
2022-10-23T09:57:17.785Z,72.54
2022-10-23T09:59:44.488Z,73.66
2022-10-23T10:02:34.296Z,72.95
2022-10-23T10:05:29.242Z,73.66
2022-10-23T10:08:02.044Z,73.10
2022-10-23T10:10:37.556Z,72.94
2022-10-23T10:13:18.856Z,72.58
2022-10-23T10:15:54.627Z,73.05
2022-10-23T10:18:32.768Z,72.64
2022-10-23T10:21:21.078Z,70.87
2022-10-23T10:24:00.417Z,69.54
2022-10-23T10:26:36.856Z,68.39
2022-10-23T10:29:09.421Z,66.63
2022-10-23T10:31:38.427Z,67.33
2022-10-23T10:34:39.636Z,66.92
2022-10-23T10:37:31.073Z,68.39
2022-10-23T10:40:10.044Z,67.40
2022-10-23T10:43:10.461Z,68.18
2022-10-23T10:45:47.704Z,67.51
2022-10-23T10:48:59.546Z,66.10
2022-10-23T10:51:37.800Z,65.75
2022-10-23T10:54:34.329Z,64.20
2022-10-23T10:57:09.212Z,64.78
2022-10-23T10:59:42.411Z,64.93
2022-10-23T11:02:31.783Z,65.61
2022-10-23T11:05:34.607Z,67.09
2022-10-23T11:08:12.183Z,68.08
2022-10-23T11:10:42.367Z,69.15
2022-10-23T11:13:40.258Z,69.56
2022-10-23T11:16:26.619Z,70.50
2022-10-23T11:19:21.168Z,70.96
2022-10-23T11:22:09.948Z,70.88
2022-10-23T11:24:55.852Z,70.63
2022-10-23T11:27:52.159Z,70.14
2022-10-23T11:30:23.860Z,70.74
2022-10-23T11:33:15.268Z,70.00
2022-10-23T11:35:58.013Z,70.70
2022-10-23T11:38:35.011Z,72.34
2022-10-23T11:41:22.278Z,71.19
2022-10-23T11:44:03.408Z,71.60
2022-10-23T11:46:31.205Z,68.92
2022-10-23T11:48:58.080Z,67.19
2022-10-23T11:51:36.886Z,66.11
2022-10-23T11:54:13.272Z,68.00
2022-10-23T11:57:10.248Z,67.56
2022-10-23T11:59:45.533Z,68.25
2022-10-23T12:02:37.432Z,69.10
2022-10-23T12:05:30.769Z,69.78
2022-10-23T12:08:00.373Z,69.80
2022-10-23T12:10:30.872Z,68.50
2022-10-23T12:12:58.865Z,68.47
2022-10-23T12:15:26.151Z,69.27
2022-10-23T12:17:54.789Z,70.14
2022-10-23T12:20:30.656Z,70.28
2022-10-23T12:23:30.287Z,69.53
2022-10-23T12:26:24.565Z,69.64
2022-10-23T12:29:02.359Z,68.65
2022-10-23T12:31:50.150Z,67.85
2022-10-23T12:34:32.297Z,66.37
2022-10-23T12:37:04.660Z,61.08
2022-10-23T12:39:37.468Z,50.80
2022-10-23T12:42:04.743Z,45.61
2022-10-23T12:44:31.436Z,41.92
2022-10-23T12:47:00.962Z,40.04
2022-10-23T12:49:31.952Z,38.97
2022-10-23T12:51:59.522Z,38.49
2022-10-23T12:54:27.053Z,38.33
2022-10-23T12:56:54.473Z,38.69
2022-10-23T12:59:26.329Z,39.37
2022-10-23T13:01:54.534Z,42.89
2022-10-23T13:04:31.263Z,41.99
2022-10-23T13:07:04.031Z,41.98
2022-10-23T13:09:36.009Z,43.63
2022-10-23T13:12:05.008Z,46.30
2022-10-23T13:14:44.518Z,48.01
2022-10-23T13:17:11.689Z,46.86
2022-10-23T13:19:38.403Z,48.38
2022-10-23T13:22:16.836Z,50.39
2022-10-23T13:24:43.757Z,52.40
2022-10-23T13:27:43.153Z,51.75
2022-10-23T13:30:32.404Z,53.76
2022-10-23T13:32:59.654Z,53.49
2022-10-23T13:35:26.766Z,54.02
2022-10-23T13:37:53.247Z,55.43
2022-10-23T13:40:26.095Z,56.56
2022-10-23T13:42:54.165Z,57.82
2022-10-23T13:45:24.697Z,59.21
2022-10-23T13:47:51.223Z,60.57
2022-10-23T13:50:18.906Z,62.38
2022-10-23T13:52:46.386Z,62.21
2022-10-23T13:55:24.335Z,63.00
2022-10-23T13:57:51.343Z,63.46
2022-10-23T14:00:18.206Z,64.19
2022-10-23T14:02:44.895Z,65.10
2022-10-23T14:05:12.084Z,65.10
2022-10-23T14:07:38.492Z,65.21
2022-10-23T14:10:05.460Z,68.32
2022-10-23T14:12:39.187Z,68.00
2022-10-23T14:15:06.276Z,69.28
2022-10-23T14:17:34.743Z,69.98
2022-10-23T14:20:03.072Z,69.73
2022-10-23T14:22:31.590Z,70.09
2022-10-23T14:24:57.987Z,71.26
2022-10-23T14:27:24.454Z,70.67
2022-10-23T14:29:50.876Z,70.17
2022-10-23T14:32:17.369Z,68.96
2022-10-23T14:34:45.787Z,68.65
2022-10-23T14:37:12.241Z,69.79
2022-10-23T14:39:38.652Z,69.21
2022-10-23T14:42:05.148Z,69.17
2022-10-23T14:44:31.664Z,69.54
2022-10-23T14:46:59.489Z,69.78
2022-10-23T14:49:25.935Z,69.25
2022-10-23T14:51:52.321Z,69.12
2022-10-23T14:54:18.784Z,70.54
2022-10-23T14:56:45.266Z,71.29
2022-10-23T14:59:13.272Z,72.22
2022-10-23T15:01:45.397Z,72.36
2022-10-23T15:04:15.200Z,72.39
2022-10-23T15:06:42.313Z,72.05
2022-10-23T15:09:08.966Z,74.03
2022-10-23T15:11:35.329Z,73.77
2022-10-23T15:14:01.901Z,75.53
2022-10-23T15:16:28.493Z,75.39
2022-10-23T15:18:54.963Z,74.49
2022-10-23T15:21:21.375Z,74.64
2022-10-23T15:23:48.471Z,74.47
2022-10-23T15:26:20.992Z,77.03
2022-10-23T15:28:52.138Z,76.46
2022-10-23T15:31:40.904Z,76.27
2022-10-23T15:34:13.507Z,75.43
2022-10-23T15:36:40.221Z,75.45
2022-10-23T15:39:08.878Z,76.32
2022-10-23T15:41:36.949Z,75.90
2022-10-23T15:44:04.901Z,75.52
2022-10-23T15:46:31.363Z,74.91
2022-10-23T15:48:57.943Z,75.45
2022-10-23T15:51:24.817Z,77.26
2022-10-23T15:53:52.151Z,77.67
2022-10-23T15:56:18.532Z,78.00
2022-10-23T15:58:45.727Z,78.35
2022-10-23T16:01:12.439Z,78.55
2022-10-23T16:03:39.091Z,79.44
2022-10-23T16:06:08.425Z,79.25
2022-10-23T16:08:35.799Z,78.59
2022-10-23T16:11:03.325Z,78.22
2022-10-23T16:13:29.735Z,78.53
2022-10-23T16:15:56.160Z,78.27
2022-10-23T16:18:23.308Z,78.38
2022-10-23T16:20:55.427Z,77.63
2022-10-23T16:23:22.321Z,78.40
2022-10-23T16:25:48.753Z,78.36
2022-10-23T16:28:15.170Z,78.54
2022-10-23T16:30:42.479Z,77.79
2022-10-23T16:33:09.769Z,77.62
2022-10-23T16:35:36.920Z,78.46
2022-10-23T16:38:03.731Z,78.39
2022-10-23T16:40:30.467Z,78.56
2022-10-23T16:42:58.330Z,79.01
2022-10-23T16:45:24.796Z,78.67
2022-10-23T16:47:51.190Z,79.23
2022-10-23T16:50:17.762Z,79.53
2022-10-23T16:52:44.341Z,78.78
2022-10-23T16:55:10.964Z,79.53
2022-10-23T16:57:37.618Z,79.51
2022-10-23T17:00:05.380Z,79.39
2022-10-23T17:02:32.203Z,78.35
2022-10-23T17:04:58.774Z,78.96
2022-10-23T17:07:25.382Z,78.44
2022-10-23T17:09:51.738Z,77.93
2022-10-23T17:12:18.181Z,78.16
2022-10-23T17:14:44.588Z,77.83
2022-10-23T17:17:10.996Z,78.27
2022-10-23T17:19:45.573Z,79.72
2022-10-23T17:22:13.267Z,79.52
2022-10-23T17:24:41.083Z,79.95
2022-10-23T17:27:08.069Z,79.74
2022-10-23T17:29:34.644Z,79.76
2022-10-23T17:32:01.275Z,79.27
2022-10-23T17:34:27.709Z,79.36
2022-10-23T17:36:55.209Z,79.05
2022-10-23T17:39:26.326Z,80.24
2022-10-23T17:41:53.178Z,80.76
2022-10-23T17:44:19.807Z,80.14
2022-10-23T17:46:46.411Z,80.18
2022-10-23T17:49:13.276Z,80.45
2022-10-23T17:51:39.693Z,80.13
2022-10-23T17:54:08.969Z,80.80
2022-10-23T17:56:37.589Z,80.94
2022-10-23T17:59:10.200Z,80.08
2022-10-23T18:01:36.843Z,80.49
2022-10-23T18:04:06.705Z,82.49
2022-10-23T18:06:36.485Z,82.48
2022-10-23T18:09:05.030Z,83.93
2022-10-23T18:11:34.561Z,84.13
2022-10-23T18:14:01.580Z,83.32
2022-10-23T18:16:28.872Z,83.54
2022-10-23T18:18:55.931Z,88.74
2022-10-23T18:21:24.202Z,89.22
2022-10-23T18:23:51.340Z,91.63
2022-10-23T18:26:21.098Z,94.51
2022-10-23T18:28:49.886Z,96.41
2022-10-23T18:31:18.503Z,97.78
2022-10-23T18:33:45.792Z,98.83
2022-10-23T18:36:23.348Z,98.79
2022-10-23T18:38:50.489Z,99.00
2022-10-23T18:41:18.823Z,99.90
2022-10-23T18:43:45.819Z,100.00
2022-10-23T18:46:13.319Z,100.00
2022-10-23T18:48:40.162Z,100.00
2022-10-23T18:51:23.254Z,100.00
2022-10-23T18:53:50.625Z,100.00
2022-10-23T18:56:22.729Z,100.00
2022-10-23T18:58:50.999Z,100.00
2022-10-23T19:01:19.050Z,99.82
2022-10-23T19:03:45.954Z,99.84
2022-10-23T19:06:12.486Z,99.49
2022-10-23T19:08:40.592Z,100.00
2022-10-23T19:11:07.968Z,100.00
2022-10-23T19:13:39.099Z,100.00
2022-10-23T19:16:16.365Z,100.00
2022-10-23T19:18:46.996Z,100.00
2022-10-23T19:21:14.022Z,100.00
2022-10-23T19:23:42.283Z,100.00
2022-10-23T19:26:11.927Z,100.00
2022-10-23T19:28:41.070Z,100.00
2022-10-23T19:31:09.782Z,99.99
2022-10-23T19:33:38.416Z,100.00
2022-10-23T19:36:07.912Z,100.00
2022-10-23T19:38:36.521Z,100.00
2022-10-23T19:41:03.915Z,100.00
2022-10-23T19:43:30.441Z,100.00
2022-10-23T19:45:59.325Z,100.00
2022-10-23T19:48:25.727Z,100.00
2022-10-23T19:50:52.191Z,100.00
2022-10-23T19:53:18.588Z,100.00
2022-10-23T19:55:44.988Z,100.00
2022-10-23T19:58:11.393Z,100.00
2022-10-23T20:00:37.855Z,100.00
2022-10-23T20:03:04.479Z,100.00
2022-10-23T20:05:31.800Z,100.00
2022-10-23T20:07:58.349Z,100.00
2022-10-23T20:10:25.844Z,100.00
2022-10-23T20:12:56.655Z,100.00
2022-10-23T20:15:28.924Z,100.00
2022-10-23T20:17:55.261Z,100.00
2022-10-23T20:20:21.713Z,100.00
2022-10-23T20:22:52.059Z,100.00
2022-10-23T20:25:21.210Z,100.00
2022-10-23T20:27:47.566Z,100.00
2022-10-23T20:30:13.996Z,100.00
2022-10-23T20:32:40.362Z,100.00
2022-10-23T20:35:07.771Z,100.00
2022-10-23T20:37:34.139Z,100.00
2022-10-23T20:40:00.509Z,100.00
2022-10-23T20:42:26.871Z,100.00
2022-10-23T20:44:53.217Z,100.00
2022-10-23T20:47:19.575Z,100.00
2022-10-23T20:49:47.762Z,100.00
2022-10-23T20:52:14.217Z,100.00
2022-10-23T20:54:40.594Z,100.00
2022-10-23T20:57:07.096Z,100.00
2022-10-23T20:59:34.088Z,100.00
2022-10-23T21:02:00.560Z,100.00
2022-10-23T21:04:28.407Z,100.00
2022-10-23T21:07:10.077Z,100.00
2022-10-23T21:09:37.754Z,100.00
2022-10-23T21:12:04.520Z,99.84
2022-10-23T21:14:31.002Z,99.76
2022-10-23T21:16:57.550Z,99.83
2022-10-23T21:19:23.916Z,100.00
2022-10-23T21:21:50.294Z,100.00
2022-10-23T21:24:17.315Z,100.00
2022-10-23T21:26:44.871Z,100.00
2022-10-23T21:29:20.250Z,99.88
2022-10-23T21:31:59.155Z,100.00
2022-10-23T21:34:26.634Z,100.00
2022-10-23T21:37:11.957Z,99.92
2022-10-23T21:39:39.283Z,100.00
2022-10-23T21:42:05.813Z,100.00
2022-10-23T21:44:32.708Z,100.00
2022-10-23T21:46:59.119Z,100.00
2022-10-23T21:49:25.480Z,99.95
2022-10-23T21:51:52.075Z,100.00
2022-10-23T21:54:18.514Z,100.00
2022-10-23T21:56:47.669Z,100.00
2022-10-23T21:59:16.284Z,100.00
2022-10-23T22:01:45.306Z,93.62
2022-10-23T22:04:14.135Z,88.70
2022-10-23T22:06:41.731Z,87.32
2022-10-23T22:09:09.320Z,85.50
2022-10-23T22:11:35.688Z,85.26
2022-10-23T22:14:02.193Z,84.98
2022-10-23T22:16:30.357Z,84.34
2022-10-23T22:18:57.181Z,84.34
2022-10-23T22:21:26.708Z,84.22
2022-10-23T22:23:57.737Z,84.20
2022-10-23T22:26:40.162Z,84.69
2022-10-23T22:29:09.309Z,84.86
2022-10-23T22:31:36.611Z,85.85
2022-10-23T22:34:18.519Z,84.79
2022-10-23T22:36:53.193Z,84.80
2022-10-23T22:39:19.608Z,85.08
2022-10-23T22:41:47.443Z,85.76
2022-10-23T22:44:14.795Z,87.72
2022-10-23T22:46:42.300Z,88.25
2022-10-23T22:49:09.026Z,90.18
2022-10-23T22:51:36.728Z,94.39
2022-10-23T22:54:03.136Z,96.29
2022-10-23T22:56:30.288Z,96.34
2022-10-23T22:58:57.073Z,96.31
2022-10-23T23:01:32.861Z,96.96
2022-10-23T23:04:08.734Z,97.26
2022-10-23T23:06:46.763Z,99.38
2022-10-23T23:09:17.878Z,98.81
2022-10-23T23:11:51.524Z,100.00
2022-10-23T23:14:22.098Z,100.00
2022-10-23T23:16:50.502Z,100.00
2022-10-23T23:19:17.048Z,100.00
2022-10-23T23:21:43.448Z,100.00
2022-10-23T23:24:11.559Z,100.00
2022-10-23T23:26:37.935Z,100.00
2022-10-23T23:29:04.306Z,100.00
2022-10-23T23:31:30.694Z,100.00
2022-10-23T23:33:57.191Z,100.00
2022-10-23T23:36:26.544Z,100.00
2022-10-23T23:38:53.836Z,100.00
2022-10-23T23:41:21.532Z,100.00
2022-10-23T23:43:48.788Z,100.00
2022-10-23T23:46:15.823Z,99.67
2022-10-23T23:48:47.265Z,99.42
2022-10-23T23:51:19.017Z,99.64
2022-10-23T23:53:45.453Z,99.93
2022-10-23T23:56:11.838Z,99.02
2022-10-23T23:58:38.241Z,98.90
